createdAt,value
2022-09-02T00:01:59.423Z,46.63
2022-09-02T00:04:29.736Z,46.57
2022-09-02T00:07:01.519Z,46.54
2022-09-02T00:09:30.721Z,46.62
2022-09-02T00:12:00.677Z,46.83
2022-09-02T00:14:34.545Z,46.85
2022-09-02T00:17:05.246Z,47.02
2022-09-02T00:19:38.265Z,47.01
2022-09-02T00:22:06.352Z,47.06
2022-09-02T00:24:37.134Z,47.12
2022-09-02T00:27:06.741Z,47.21
2022-09-02T00:29:34.688Z,47.20
2022-09-02T00:32:02.749Z,47.28
2022-09-02T00:34:32.128Z,47.43
2022-09-02T00:36:59.862Z,47.52
2022-09-02T00:39:28.453Z,47.59
2022-09-02T00:41:56.349Z,47.64
2022-09-02T00:44:26.618Z,47.64
2022-09-02T00:46:56.663Z,47.81
2022-09-02T00:49:34.872Z,47.86
2022-09-02T00:52:21.693Z,47.96
2022-09-02T00:55:19.114Z,48.07
2022-09-02T00:58:02.107Z,48.17
2022-09-02T01:00:38.925Z,48.19
2022-09-02T01:03:12.179Z,48.24
2022-09-02T01:05:47.029Z,48.30
2022-09-02T01:08:20.795Z,48.45
2022-09-02T01:10:52.214Z,48.49
2022-09-02T01:13:25.442Z,48.49
2022-09-02T01:16:13.264Z,48.51
2022-09-02T01:18:47.833Z,48.67
2022-09-02T01:21:18.467Z,48.72
2022-09-02T01:23:49.610Z,48.71
2022-09-02T01:26:19.827Z,48.85
2022-09-02T01:28:47.595Z,48.92
2022-09-02T01:31:18.654Z,48.97
2022-09-02T01:33:48.755Z,48.99
2022-09-02T01:36:17.322Z,49.12
2022-09-02T01:38:48.058Z,49.24
2022-09-02T01:41:15.763Z,49.28
2022-09-02T01:43:43.905Z,49.23
2022-09-02T01:46:14.742Z,49.37
2022-09-02T01:48:42.857Z,49.36
2022-09-02T01:51:21.093Z,49.33
2022-09-02T01:53:50.421Z,49.54
2022-09-02T01:56:20.706Z,49.60
2022-09-02T01:58:51.478Z,49.60
2022-09-02T02:01:21.895Z,49.81
2022-09-02T02:03:50.180Z,49.70
2022-09-02T02:06:21.265Z,49.77
2022-09-02T02:08:49.784Z,49.86
2022-09-02T02:11:24.575Z,49.77
2022-09-02T02:13:55.039Z,50.03
2022-09-02T02:16:22.978Z,50.18
2022-09-02T02:18:53.354Z,50.02
2022-09-02T02:21:21.170Z,50.19
2022-09-02T02:23:48.941Z,50.21
2022-09-02T02:26:16.749Z,50.24
2022-09-02T02:28:47.170Z,50.18
2022-09-02T02:31:17.794Z,50.33
2022-09-02T02:33:48.873Z,50.45
2022-09-02T02:36:19.875Z,50.58
2022-09-02T02:38:47.597Z,50.55
2022-09-02T02:41:17.998Z,50.62
2022-09-02T02:43:45.763Z,50.72
2022-09-02T02:46:19.279Z,50.62
2022-09-02T02:48:49.452Z,50.65
2022-09-02T02:51:18.462Z,50.90
2022-09-02T02:53:48.529Z,50.92
2022-09-02T02:56:18.477Z,50.98
2022-09-02T02:58:46.262Z,51.05
2022-09-02T03:01:14.283Z,51.01
2022-09-02T03:03:45.482Z,51.01
2022-09-02T03:06:15.803Z,51.25
2022-09-02T03:08:51.083Z,51.30
2022-09-02T03:11:22.697Z,51.31
2022-09-02T03:13:55.328Z,51.28
2022-09-02T03:16:23.396Z,51.36
2022-09-02T03:18:54.187Z,51.42
2022-09-02T03:21:24.494Z,51.51
2022-09-02T03:23:54.292Z,51.49
2022-09-02T03:26:30.293Z,51.70
2022-09-02T03:28:58.249Z,51.79
2022-09-02T03:31:29.692Z,51.51
2022-09-02T03:33:57.494Z,51.61
2022-09-02T03:36:29.489Z,51.78
2022-09-02T03:39:02.985Z,51.70
2022-09-02T03:41:33.226Z,51.81
2022-09-02T03:44:03.924Z,51.94
2022-09-02T03:46:33.968Z,51.94
2022-09-02T03:49:04.185Z,52.01
2022-09-02T03:51:35.260Z,51.95
2022-09-02T03:54:06.995Z,52.04
2022-09-02T03:56:35.138Z,51.93
2022-09-02T03:59:06.146Z,52.19
2022-09-02T04:01:36.221Z,52.32
2022-09-02T04:04:07.960Z,52.45
2022-09-02T04:06:39.062Z,52.48
2022-09-02T04:09:10.053Z,52.47
2022-09-02T04:11:45.319Z,52.57
2022-09-02T04:14:15.148Z,52.36
2022-09-02T04:16:46.145Z,52.47
2022-09-02T04:19:13.984Z,52.74
2022-09-02T04:21:44.743Z,52.69
2022-09-02T04:24:15.732Z,52.78
2022-09-02T04:26:45.266Z,52.95
2022-09-02T04:29:17.554Z,52.98
2022-09-02T04:31:53.359Z,53.09
2022-09-02T04:34:23.692Z,53.20
2022-09-02T04:36:56.106Z,53.16
2022-09-02T04:39:23.823Z,53.30
2022-09-02T04:41:57.061Z,53.32
2022-09-02T04:44:28.583Z,53.35
2022-09-02T04:46:59.528Z,53.56
2022-09-02T04:49:27.514Z,53.68
2022-09-02T04:51:55.268Z,53.60
2022-09-02T04:54:25.475Z,53.42
2022-09-02T04:56:54.955Z,53.88
2022-09-02T04:59:24.923Z,53.77
2022-09-02T05:01:54.315Z,53.94
2022-09-02T05:04:24.372Z,53.71
2022-09-02T05:06:54.406Z,53.99
2022-09-02T05:09:22.261Z,53.96
2022-09-02T05:11:52.354Z,54.10
2022-09-02T05:14:22.637Z,54.12
2022-09-02T05:16:56.462Z,54.25
2022-09-02T05:19:27.578Z,54.35
2022-09-02T05:21:59.377Z,54.28
2022-09-02T05:24:30.413Z,54.50
2022-09-02T05:27:00.712Z,54.49
2022-09-02T05:29:31.638Z,54.60
2022-09-02T05:32:01.621Z,54.68
2022-09-02T05:34:31.938Z,54.69
2022-09-02T05:37:02.083Z,54.83
2022-09-02T05:39:32.998Z,54.78
2022-09-02T05:42:00.926Z,54.90
2022-09-02T05:44:33.207Z,55.02
2022-09-02T05:47:01.025Z,54.98
2022-09-02T05:49:33.979Z,55.06
2022-09-02T05:52:04.999Z,55.18
2022-09-02T05:54:38.221Z,55.28
2022-09-02T05:57:12.009Z,55.31
2022-09-02T05:59:44.303Z,55.38
2022-09-02T06:02:17.379Z,55.45
2022-09-02T06:04:52.195Z,55.48
2022-09-02T06:07:25.325Z,55.54
2022-09-02T06:09:56.721Z,55.57
2022-09-02T06:12:28.068Z,55.61
2022-09-02T06:14:58.093Z,55.62
2022-09-02T06:17:30.252Z,55.70
2022-09-02T06:19:58.217Z,55.72
2022-09-02T06:22:30.823Z,55.75
2022-09-02T06:24:58.560Z,55.83
2022-09-02T06:27:29.636Z,55.77
2022-09-02T06:30:00.232Z,55.72
2022-09-02T06:32:30.827Z,55.87
2022-09-02T06:34:59.530Z,56.09
2022-09-02T06:37:30.587Z,55.90
2022-09-02T06:39:58.561Z,55.98
2022-09-02T06:42:31.373Z,55.95
2022-09-02T06:44:59.151Z,55.89
2022-09-02T06:47:28.884Z,56.07
2022-09-02T06:49:56.598Z,55.99
2022-09-02T06:52:27.721Z,55.94
2022-09-02T06:54:55.531Z,55.98
2022-09-02T06:57:29.159Z,56.01
2022-09-02T07:00:12.525Z,55.94
2022-09-02T07:02:40.566Z,56.08
2022-09-02T07:05:15.657Z,55.90
2022-09-02T07:07:52.702Z,56.01
2022-09-02T07:10:22.797Z,56.04
2022-09-02T07:12:50.781Z,56.14
2022-09-02T07:15:23.491Z,56.14
2022-09-02T07:17:51.924Z,56.18
2022-09-02T07:20:22.224Z,56.07
2022-09-02T07:22:52.380Z,56.16
2022-09-02T07:25:23.164Z,56.04
2022-09-02T07:27:55.293Z,55.99
2022-09-02T07:30:26.557Z,54.65
2022-09-02T07:32:59.831Z,54.30
2022-09-02T07:35:31.311Z,53.97
2022-09-02T07:38:04.349Z,53.72
2022-09-02T07:40:36.437Z,53.22
2022-09-02T07:43:08.506Z,53.03
2022-09-02T07:45:41.456Z,52.94
2022-09-02T07:48:10.606Z,52.89
2022-09-02T07:50:40.519Z,52.61
2022-09-02T07:53:14.105Z,52.26
2022-09-02T07:55:46.083Z,51.81
2022-09-02T07:58:18.557Z,51.70
2022-09-02T08:00:51.413Z,51.41
2022-09-02T08:03:24.591Z,50.66
2022-09-02T08:05:57.347Z,50.84
2022-09-02T08:08:28.933Z,50.65
2022-09-02T08:13:36.993Z,49.43
2022-09-02T08:16:08.595Z,49.02
2022-09-02T08:18:40.457Z,48.66
2022-09-02T08:21:11.615Z,48.23
2022-09-02T08:23:39.920Z,48.03
2022-09-02T08:26:14.196Z,47.11
2022-09-02T08:28:42.147Z,46.70
2022-09-02T08:31:13.166Z,46.52
2022-09-02T08:33:43.293Z,46.18
2022-09-02T08:36:15.001Z,45.69
2022-09-02T08:38:46.336Z,44.71
2022-09-02T08:41:26.089Z,44.28
2022-09-02T08:44:02.383Z,43.78
2022-09-02T08:46:36.084Z,43.30
2022-09-02T08:49:25.904Z,42.65
2022-09-02T08:52:01.653Z,42.02
2022-09-02T08:54:58.631Z,41.93
2022-09-02T08:57:31.198Z,41.48
2022-09-02T09:00:05.007Z,41.25
2022-09-02T09:02:56.958Z,40.86
2022-09-02T09:05:45.397Z,40.88
2022-09-02T09:08:47.326Z,40.17
2022-09-02T09:11:28.896Z,39.49
2022-09-02T09:14:17.426Z,39.18
2022-09-02T09:17:02.860Z,38.95
2022-09-02T09:19:41.936Z,38.68
2022-09-02T09:22:18.012Z,38.58
2022-09-02T09:24:56.966Z,37.88
2022-09-02T09:27:24.716Z,38.07
2022-09-02T09:29:54.371Z,37.56
2022-09-02T09:32:33.665Z,37.41
2022-09-02T09:35:12.148Z,37.13
2022-09-02T09:37:48.977Z,37.03
2022-09-02T09:40:26.737Z,36.99
2022-09-02T09:43:14.566Z,36.80
2022-09-02T09:45:53.129Z,36.34
2022-09-02T09:48:29.637Z,36.18
2022-09-02T09:51:00.338Z,35.98
2022-09-02T09:53:38.644Z,36.06
2022-09-02T09:56:27.247Z,35.95
2022-09-02T09:58:58.116Z,35.41
2022-09-02T10:01:35.904Z,34.95
2022-09-02T10:04:44.733Z,34.95
2022-09-02T10:07:36.673Z,34.88
2022-09-02T10:10:21.546Z,34.75
2022-09-02T10:12:55.840Z,34.53
2022-09-02T10:15:34.311Z,34.22
2022-09-02T10:18:18.400Z,33.96
2022-09-02T10:21:15.901Z,33.91
2022-09-02T10:24:13.730Z,33.87
2022-09-02T10:26:53.430Z,33.70
2022-09-02T10:30:01.235Z,33.64
2022-09-02T10:32:39.824Z,33.74
2022-09-02T10:35:16.592Z,33.50
2022-09-02T10:38:09.434Z,33.41
2022-09-02T10:41:16.150Z,33.37
2022-09-02T10:44:07.848Z,33.40
2022-09-02T10:47:04.862Z,33.24
2022-09-02T10:50:07.323Z,33.21
2022-09-02T10:52:48.594Z,33.26
2022-09-02T10:55:45.297Z,33.01
2022-09-02T10:58:23.170Z,32.93
2022-09-02T11:00:57.238Z,32.85
2022-09-02T11:03:48.266Z,32.98
2022-09-02T11:06:58.611Z,32.62
2022-09-02T11:09:40.201Z,32.73
2022-09-02T11:12:32.434Z,32.53
2022-09-02T11:15:37.983Z,32.75
2022-09-02T11:18:19.965Z,32.66
2022-09-02T11:21:01.645Z,32.71
2022-09-02T11:23:54.831Z,32.60
2022-09-02T11:26:48.168Z,32.67
2022-09-02T11:29:25.187Z,32.72
2022-09-02T11:32:08.502Z,32.49
2022-09-02T11:34:53.075Z,32.41
2022-09-02T11:37:32.344Z,32.33
2022-09-02T11:40:33.089Z,32.26
2022-09-02T11:43:25.718Z,32.31
2022-09-02T11:46:14.851Z,32.15
2022-09-02T11:49:25.174Z,32.41
2022-09-02T11:52:08.549Z,32.14
2022-09-02T11:54:48.977Z,32.26
2022-09-02T11:57:28.799Z,32.39
2022-09-02T11:59:58.906Z,32.31
2022-09-02T12:02:49.838Z,32.05
2022-09-02T12:05:32.761Z,31.82
2022-09-02T12:08:35.262Z,31.93
2022-09-02T12:11:08.029Z,32.05
2022-09-02T12:13:45.732Z,31.88
2022-09-02T12:16:24.837Z,32.04
2022-09-02T12:18:55.501Z,31.84
2022-09-02T12:21:31.543Z,31.70
2022-09-02T12:24:02.171Z,31.68
2022-09-02T12:26:36.924Z,31.63
2022-09-02T12:29:12.586Z,31.59
2022-09-02T12:31:47.192Z,31.85
2022-09-02T12:34:20.829Z,31.67
2022-09-02T12:37:02.701Z,31.67
2022-09-02T12:39:38.305Z,31.70
2022-09-02T12:42:12.212Z,31.77
2022-09-02T12:45:09.742Z,31.59
2022-09-02T12:47:54.372Z,31.59
2022-09-02T12:50:54.475Z,31.35
2022-09-02T12:53:50.204Z,31.55
2022-09-02T12:56:25.884Z,31.15
2022-09-02T12:59:02.739Z,31.22
2022-09-02T13:02:04.768Z,31.26
2022-09-02T13:04:57.925Z,31.31
2022-09-02T13:07:42.618Z,31.23
2022-09-02T13:10:19.551Z,31.26
2022-09-02T13:13:22.337Z,31.28
2022-09-02T13:16:19.212Z,31.17
2022-09-02T13:19:25.048Z,30.94
2022-09-02T13:22:16.574Z,30.98
2022-09-02T13:25:09.166Z,31.15
2022-09-02T13:28:23.931Z,30.94
2022-09-02T13:31:12.979Z,31.00
2022-09-02T13:33:44.090Z,30.99
2022-09-02T13:36:27.628Z,31.26
2022-09-02T13:38:55.596Z,31.04
2022-09-02T13:41:29.228Z,31.10
2022-09-02T13:44:09.911Z,31.12
2022-09-02T13:46:47.640Z,30.92
2022-09-02T13:49:28.461Z,31.13
2022-09-02T13:51:59.670Z,31.08
2022-09-02T13:54:38.402Z,30.97
2022-09-02T13:57:22.027Z,31.07
2022-09-02T13:59:58.290Z,31.17
2022-09-02T14:02:33.981Z,31.15
2022-09-02T14:05:18.308Z,31.22
2022-09-02T14:07:57.437Z,31.05
2022-09-02T14:10:29.383Z,30.97
2022-09-02T14:13:00.900Z,31.10
2022-09-02T14:15:34.996Z,31.11
2022-09-02T14:18:22.972Z,31.06
2022-09-02T14:21:20.968Z,31.25
2022-09-02T14:23:53.514Z,31.15
2022-09-02T14:26:34.969Z,31.13
2022-09-02T14:29:15.483Z,31.15
2022-09-02T14:31:47.272Z,31.17
2022-09-02T14:34:39.682Z,31.21
2022-09-02T14:37:21.135Z,31.14
2022-09-02T14:40:13.081Z,31.11
2022-09-02T14:42:56.781Z,31.29
2022-09-02T14:45:34.146Z,31.40
2022-09-02T14:48:22.210Z,31.27
2022-09-02T14:51:05.414Z,31.30
2022-09-02T14:53:38.064Z,31.42
2022-09-02T14:56:08.286Z,31.35
2022-09-02T14:58:36.796Z,31.31
2022-09-02T15:01:09.368Z,31.28
2022-09-02T15:03:41.204Z,31.47
2022-09-02T15:06:13.121Z,31.45
2022-09-02T15:08:44.647Z,31.52
2022-09-02T15:11:18.939Z,31.47
2022-09-02T15:13:47.547Z,31.58
2022-09-02T15:16:16.303Z,31.46
2022-09-02T15:18:45.686Z,31.71
2022-09-02T15:21:14.313Z,31.71
2022-09-02T15:23:42.138Z,31.62
2022-09-02T15:26:11.809Z,31.72
2022-09-02T15:28:40.275Z,31.71
2022-09-02T15:31:08.958Z,31.81
2022-09-02T15:33:42.982Z,31.65
2022-09-02T15:36:15.820Z,31.73
2022-09-02T15:38:46.756Z,31.84
2022-09-02T15:41:20.319Z,31.87
2022-09-02T15:43:51.323Z,31.89
2022-09-02T15:46:41.533Z,32.00
2022-09-02T15:49:15.237Z,31.91
2022-09-02T15:51:46.381Z,31.87
2022-09-02T15:54:19.281Z,32.03
2022-09-02T15:56:58.631Z,32.06
2022-09-02T15:59:29.381Z,32.10
2022-09-02T16:02:00.760Z,32.18
2022-09-02T16:04:30.980Z,32.12
2022-09-02T16:07:00.831Z,32.20
2022-09-02T16:09:29.417Z,32.28
2022-09-02T16:11:57.441Z,32.28
2022-09-02T16:14:26.930Z,32.35
2022-09-02T16:16:56.419Z,32.44
2022-09-02T16:19:30.695Z,32.53
2022-09-02T16:22:01.844Z,32.60
2022-09-02T16:24:34.690Z,32.76
2022-09-02T16:27:03.459Z,32.61
2022-09-02T16:29:35.928Z,32.71
2022-09-02T16:34:57.677Z,32.79
2022-09-02T16:37:25.399Z,32.90
2022-09-02T16:39:53.465Z,32.94
2022-09-02T16:42:24.876Z,32.93
2022-09-02T16:44:58.234Z,33.01
2022-09-02T16:47:28.318Z,33.15
2022-09-02T16:49:56.719Z,33.17
2022-09-02T16:52:24.710Z,33.11
2022-09-02T16:54:54.936Z,33.19
2022-09-02T16:57:25.172Z,33.29
2022-09-02T16:59:55.096Z,33.41
2022-09-02T17:02:23.752Z,33.40
2022-09-02T17:04:56.955Z,33.43
2022-09-02T17:07:24.683Z,33.52
2022-09-02T17:09:52.657Z,33.56
2022-09-02T17:12:20.503Z,33.63
2022-09-02T17:14:53.857Z,33.67
2022-09-02T17:17:24.026Z,33.77
2022-09-02T17:19:51.745Z,33.87
2022-09-02T17:22:24.639Z,33.91
2022-09-02T17:24:58.033Z,33.97
2022-09-02T17:27:28.071Z,34.01
2022-09-02T17:29:59.354Z,34.16
2022-09-02T17:32:27.313Z,34.13
2022-09-02T17:34:57.042Z,34.16
2022-09-02T17:37:27.680Z,34.31
2022-09-02T17:39:57.749Z,34.37
2022-09-02T17:42:26.824Z,34.29
2022-09-02T17:44:54.686Z,34.35
2022-09-02T17:47:26.210Z,34.48
2022-09-02T17:49:54.094Z,34.57
2022-09-02T17:52:26.243Z,34.73
2022-09-02T17:54:55.749Z,34.60
2022-09-02T17:57:34.092Z,34.73
2022-09-02T18:00:15.718Z,34.87
2022-09-02T18:03:13.097Z,34.95
2022-09-02T18:06:20.840Z,34.99
2022-09-02T18:09:02.346Z,35.16
2022-09-02T18:11:33.812Z,35.09
2022-09-02T18:14:21.929Z,35.26
2022-09-02T18:17:14.612Z,35.23
2022-09-02T18:20:10.650Z,35.30
2022-09-02T18:23:13.133Z,35.35
2022-09-02T18:26:12.368Z,35.60
2022-09-02T18:29:20.548Z,35.63
2022-09-02T18:32:11.147Z,35.63
2022-09-02T18:35:05.359Z,35.73
2022-09-02T18:37:56.648Z,35.66
2022-09-02T18:40:48.907Z,35.88
2022-09-02T18:43:50.493Z,35.89
2022-09-02T18:46:25.395Z,36.10
2022-09-02T18:48:59.996Z,36.05
2022-09-02T18:51:42.060Z,36.05
2022-09-02T18:54:24.611Z,36.07
2022-09-02T18:57:03.608Z,36.20
2022-09-02T18:59:43.513Z,36.27
2022-09-02T19:02:30.501Z,36.42
2022-09-02T19:05:02.041Z,36.53
2022-09-02T19:07:53.478Z,36.47
2022-09-02T19:10:24.610Z,36.40
2022-09-02T19:12:55.528Z,36.52
2022-09-02T19:15:27.171Z,36.44
2022-09-02T19:18:02.961Z,36.66
2022-09-02T19:20:34.075Z,36.70
2022-09-02T19:23:08.153Z,36.75
2022-09-02T19:25:38.926Z,36.84
2022-09-02T19:28:12.133Z,36.82
2022-09-02T19:30:40.561Z,36.87
2022-09-02T19:33:15.402Z,36.97
2022-09-02T19:35:50.039Z,36.97
2022-09-02T19:38:20.303Z,37.25
2022-09-02T19:40:51.330Z,37.30
2022-09-02T19:43:23.396Z,37.20
2022-09-02T19:45:53.258Z,37.41
2022-09-02T19:48:21.673Z,37.46
2022-09-02T19:50:51.499Z,37.37
2022-09-02T19:53:30.307Z,37.42
2022-09-02T19:56:00.749Z,37.32
2022-09-02T19:58:30.193Z,37.46
2022-09-02T20:01:00.146Z,37.59
2022-09-02T20:03:30.892Z,37.72
2022-09-02T20:05:59.937Z,37.75
2022-09-02T20:08:31.288Z,37.77
2022-09-02T20:11:02.484Z,37.91
2022-09-02T20:13:40.178Z,37.77
2022-09-02T20:16:18.677Z,38.04
2022-09-02T20:18:49.068Z,37.92
2022-09-02T20:21:24.684Z,38.22
2022-09-02T20:23:56.222Z,38.05
2022-09-02T20:26:31.377Z,38.09
2022-09-02T20:29:15.553Z,38.23
2022-09-02T20:32:01.669Z,38.33
2022-09-02T20:34:45.499Z,38.38
2022-09-02T20:37:50.206Z,38.53
2022-09-02T20:40:56.173Z,38.58
2022-09-02T20:44:06.176Z,38.76
2022-09-02T20:47:20.194Z,38.67
2022-09-02T20:50:01.370Z,38.95
2022-09-02T20:52:32.891Z,38.87
2022-09-02T20:55:24.231Z,38.97
2022-09-02T20:58:25.075Z,39.00
2022-09-02T21:01:08.159Z,38.93
2022-09-02T21:04:07.442Z,39.33
2022-09-02T21:06:43.863Z,39.24
2022-09-02T21:09:57.297Z,39.14
2022-09-02T21:12:48.494Z,39.31
2022-09-02T21:15:34.186Z,39.64
2022-09-02T21:18:47.573Z,39.65
2022-09-02T21:21:52.419Z,39.72
2022-09-02T21:24:52.629Z,39.77
2022-09-02T21:27:22.773Z,39.88
2022-09-02T21:30:08.815Z,39.83
2022-09-02T21:32:56.930Z,40.02
2022-09-02T21:35:42.215Z,40.21
2022-09-02T21:38:30.900Z,40.46
2022-09-02T21:41:13.556Z,40.47
2022-09-02T21:44:28.720Z,40.52
2022-09-02T21:47:21.243Z,40.76
2022-09-02T21:50:07.542Z,40.69
2022-09-02T21:53:12.163Z,40.85
2022-09-02T21:55:42.845Z,41.11
2022-09-02T21:58:30.459Z,41.12
2022-09-02T22:01:11.518Z,41.38
2022-09-02T22:03:53.501Z,41.22
2022-09-02T22:06:43.508Z,41.72
2022-09-02T22:09:23.509Z,41.69
2022-09-02T22:12:00.749Z,41.80
2022-09-02T22:14:48.691Z,41.76
2022-09-02T22:17:39.720Z,41.97
2022-09-02T22:20:09.250Z,42.15
2022-09-02T22:22:42.209Z,42.21
2022-09-02T22:25:17.389Z,42.36
2022-09-02T22:28:14.528Z,42.40
2022-09-02T22:30:49.799Z,42.40
2022-09-02T22:33:21.730Z,42.71
2022-09-02T22:36:00.779Z,42.94
2022-09-02T22:38:47.276Z,42.88
2022-09-02T22:41:46.416Z,43.18
2022-09-02T22:44:23.179Z,43.14
2022-09-02T22:47:19.522Z,43.29
2022-09-02T22:50:12.891Z,43.40
2022-09-02T22:52:48.193Z,43.47
2022-09-02T22:55:27.275Z,43.37
2022-09-02T22:58:31.519Z,43.43
2022-09-02T23:01:11.532Z,43.78
2022-09-02T23:03:48.208Z,43.88
2022-09-02T23:06:29.414Z,43.99
2022-09-02T23:09:08.851Z,44.08
2022-09-02T23:12:02.880Z,44.19
2022-09-02T23:15:21.862Z,44.35
2022-09-02T23:18:32.941Z,44.46
2022-09-02T23:21:18.267Z,44.57
2022-09-02T23:23:59.899Z,44.67
2022-09-02T23:26:50.879Z,44.81
2022-09-02T23:29:26.607Z,44.82
2022-09-02T23:32:21.298Z,44.81
2022-09-02T23:35:14.043Z,45.16
2022-09-02T23:37:56.940Z,45.28
2022-09-02T23:40:45.945Z,45.42
2022-09-02T23:43:15.955Z,45.39
2022-09-02T23:45:46.568Z,45.54
2022-09-02T23:48:44.878Z,45.60
2022-09-02T23:51:23.940Z,45.92
2022-09-02T23:53:54.570Z,45.97
2022-09-02T23:57:05.898Z,46.03
2022-09-02T23:59:45.671Z,46.28
